sensor_id;sensor_type;location;lat;lon;timestamp;pressure;altitude;pressure_sealevel;temperature;humidity
32873;BME280;19224;52.462;16.898;2023-02-13T00:00:40;102262.50;;;6.63;100.00
32873;BME280;19224;52.462;16.898;2023-02-13T00:03:12;102265.20;;;6.64;100.00
32873;BME280;19224;52.462;16.898;2023-02-13T00:05:43;102260.75;;;6.68;100.00
32873;BME280;19224;52.462;16.898;2023-02-13T00:08:14;102260.73;;;6.69;100.00
32873;BME280;19224;52.462;16.898;2023-02-13T00:10:45;102256.70;;;6.62;100.00
32873;BME280;19224;52.462;16.898;2023-02-13T00:13:16;102258.48;;;6.66;100.00
32873;BME280;19224;52.462;16.898;2023-02-13T00:15:58;102252.23;;;6.59;100.00
32873;BME280;19224;52.462;16.898;2023-02-13T00:18:35;102263.41;;;6.56;100.00
32873;BME280;19224;52.462;16.898;2023-02-13T00:21:09;102257.56;;;6.55;100.00
32873;BME280;19224;52.462;16.898;2023-02-13T00:23:41;102252.69;;;6.59;100.00
32873;BME280;19224;52.462;16.898;2023-02-13T00:26:14;102249.12;;;6.57;100.00
32873;BME280;19224;52.462;16.898;2023-02-13T00:28:46;102249.12;;;6.63;100.00
32873;BME280;19224;52.462;16.898;2023-02-13T00:31:20;102248.67;;;6.65;100.00
32873;BME280;19224;52.462;16.898;2023-02-13T00:33:51;102249.12;;;6.66;100.00
32873;BME280;19224;52.462;16.898;2023-02-13T00:36:22;102248.70;;;6.68;100.00
32873;BME280;19224;52.462;16.898;2023-02-13T00:38:54;102249.59;;;6.76;100.00
32873;BME280;19224;52.462;16.898;2023-02-13T00:41:25;102242.91;;;6.77;100.00
32873;BME280;19224;52.462;16.898;2023-02-13T00:43:55;102241.58;;;6.74;100.00
32873;BME280;19224;52.462;16.898;2023-02-13T00:46:25;102250.50;;;6.76;100.00
32873;BME280;19224;52.462;16.898;2023-02-13T00:48:56;102246.94;;;6.79;100.00
32873;BME280;19224;52.462;16.898;2023-02-13T00:51:26;102230.84;;;6.76;100.00
32873;BME280;19224;52.462;16.898;2023-02-13T00:53:56;102242.45;;;6.82;100.00
32873;BME280;19224;52.462;16.898;2023-02-13T00:56:27;102238.02;;;6.87;100.00
32873;BME280;19224;52.462;16.898;2023-02-13T00:58:58;102242.91;;;6.85;100.00
32873;BME280;19224;52.462;16.898;2023-02-13T01:01:29;102244.25;;;6.85;100.00
32873;BME280;19224;52.462;16.898;2023-02-13T01:03:59;102234.88;;;6.85;100.00
32873;BME280;19224;52.462;16.898;2023-02-13T01:06:29;102240.23;;;6.85;100.00
32873;BME280;19224;52.462;16.898;2023-02-13T01:09:01;102233.54;;;6.85;100.00
32873;BME280;19224;52.462;16.898;2023-02-13T01:11:31;102237.11;;;6.87;100.00
32873;BME280;19224;52.462;16.898;2023-02-13T01:14:02;102239.34;;;6.83;100.00
32873;BME280;19224;52.462;16.898;2023-02-13T01:16:32;102225.06;;;6.84;100.00
32873;BME280;19224;52.462;16.898;2023-02-13T01:19:04;102229.09;;;6.81;100.00
32873;BME280;19224;52.462;16.898;2023-02-13T01:21:35;102224.61;;;6.86;100.00
32873;BME280;19224;52.462;16.898;2023-02-13T01:24:06;102228.19;;;6.85;100.00
32873;BME280;19224;52.462;16.898;2023-02-13T01:26:36;102229.08;;;6.84;100.00
32873;BME280;19224;52.462;16.898;2023-02-13T01:29:17;102225.50;;;6.80;100.00
32873;BME280;19224;52.462;16.898;2023-02-13T01:31:47;102230.42;;;6.81;100.00
32873;BME280;19224;52.462;16.898;2023-02-13T01:34:17;102221.95;;;6.80;100.00
32873;BME280;19224;52.462;16.898;2023-02-13T01:36:48;102222.83;;;6.85;100.00
32873;BME280;19224;52.462;16.898;2023-02-13T01:39:18;102220.16;;;6.82;100.00
32873;BME280;19224;52.462;16.898;2023-02-13T01:41:49;102222.39;;;6.78;100.00
32873;BME280;19224;52.462;16.898;2023-02-13T01:44:54;102217.04;;;6.78;100.00
32873;BME280;19224;52.462;16.898;2023-02-13T01:47:48;102222.39;;;6.78;100.00
32873;BME280;19224;52.462;16.898;2023-02-13T01:55:57;102206.74;;;6.76;100.00
32873;BME280;19224;52.462;16.898;2023-02-13T01:58:28;102207.64;;;6.72;100.00
32873;BME280;19224;52.462;16.898;2023-02-13T02:00:59;102215.68;;;6.69;100.00
32873;BME280;19224;52.462;16.898;2023-02-13T02:06:24;102210.33;;;6.69;100.00
32873;BME280;19224;52.462;16.898;2023-02-13T02:08:59;102200.06;;;6.70;100.00
32873;BME280;19224;52.462;16.898;2023-02-13T02:11:57;102212.11;;;6.70;100.00
32873;BME280;19224;52.462;16.898;2023-02-13T02:14:27;102206.73;;;6.71;100.00
32873;BME280;19224;52.462;16.898;2023-02-13T02:16:58;102201.83;;;6.62;100.00
32873;BME280;19224;52.462;16.898;2023-02-13T02:32:14;102192.48;;;6.68;100.00
32873;BME280;19224;52.462;16.898;2023-02-13T02:38:24;102172.40;;;6.68;100.00
32873;BME280;19224;52.462;16.898;2023-02-13T02:41:35;102179.98;;;6.70;100.00
32873;BME280;19224;52.462;16.898;2023-02-13T02:53:28;102186.21;;;6.60;100.00
32873;BME280;19224;52.462;16.898;2023-02-13T02:59:14;102182.20;;;6.57;100.00
32873;BME280;19224;52.462;16.898;2023-02-13T03:02:04;102183.98;;;6.58;100.00
32873;BME280;19224;52.462;16.898;2023-02-13T03:04:56;102182.19;;;6.63;100.00
32873;BME280;19224;52.462;16.898;2023-02-13T03:07:46;102187.53;;;6.58;100.00
32873;BME280;19224;52.462;16.898;2023-02-13T03:10:26;102182.64;;;6.61;100.00
32873;BME280;19224;52.462;16.898;2023-02-13T03:13:27;102178.16;;;6.58;100.00
32873;BME280;19224;52.462;16.898;2023-02-13T03:15:56;102179.98;;;6.62;100.00
32873;BME280;19224;52.462;16.898;2023-02-13T03:18:54;102177.73;;;6.62;100.00
32873;BME280;19224;52.462;16.898;2023-02-13T03:22:05;102176.83;;;6.55;100.00
32873;BME280;19224;52.462;16.898;2023-02-13T03:32:22;102174.14;;;6.54;100.00
32873;BME280;19224;52.462;16.898;2023-02-13T03:35:06;102175.93;;;6.52;100.00
32873;BME280;19224;52.462;16.898;2023-02-13T03:37:55;102175.46;;;6.42;100.00
32873;BME280;19224;52.462;16.898;2023-02-13T03:40:48;102176.83;;;6.45;100.00
32873;BME280;19224;52.462;16.898;2023-02-13T03:44:05;102176.38;;;6.47;100.00
32873;BME280;19224;52.462;16.898;2023-02-13T03:46:38;102174.59;;;6.52;100.00
32873;BME280;19224;52.462;16.898;2023-02-13T03:49:23;102178.60;;;6.55;100.00
32873;BME280;19224;52.462;16.898;2023-02-13T03:52:25;102173.72;;;6.51;100.00
32873;BME280;19224;52.462;16.898;2023-02-13T03:54:56;102175.95;;;6.50;100.00
32873;BME280;19224;52.462;16.898;2023-02-13T03:57:47;102173.73;;;6.56;100.00
32873;BME280;19224;52.462;16.898;2023-02-13T04:00:43;102171.03;;;6.57;100.00
32873;BME280;19224;52.462;16.898;2023-02-13T04:06:19;102167.02;;;6.50;100.00
32873;BME280;19224;52.462;16.898;2023-02-13T04:08:50;102179.05;;;6.47;100.00
32873;BME280;19224;52.462;16.898;2023-02-13T04:11:49;102178.14;;;6.36;100.00
32873;BME280;19224;52.462;16.898;2023-02-13T04:14:31;102165.64;;;6.44;100.00
32873;BME280;19224;52.462;16.898;2023-02-13T04:17:15;102166.55;;;6.55;100.00
32873;BME280;19224;52.462;16.898;2023-02-13T04:19:40;102171.05;;;6.56;100.00
32873;BME280;19224;52.462;16.898;2023-02-13T04:22:12;102174.14;;;6.54;100.00
32873;BME280;19224;52.462;16.898;2023-02-13T04:24:43;102176.37;;;6.53;100.00
32873;BME280;19224;52.462;16.898;2023-02-13T04:27:16;102175.49;;;6.55;100.00
32873;BME280;19224;52.462;16.898;2023-02-13T04:29:46;102178.63;;;6.64;100.00
32873;BME280;19224;52.462;16.898;2023-02-13T04:32:17;102188.89;;;6.60;100.00
32873;BME280;19224;52.462;16.898;2023-02-13T04:34:47;102200.05;;;6.58;100.00
32873;BME280;19224;52.462;16.898;2023-02-13T04:37:18;102187.55;;;6.60;100.00
32873;BME280;19224;52.462;16.898;2023-02-13T04:39:48;102198.26;;;6.60;100.00
32873;BME280;19224;52.462;16.898;2023-02-13T04:42:18;102183.98;;;6.58;100.00
32873;BME280;19224;52.462;16.898;2023-02-13T04:44:49;102186.21;;;6.60;100.00
32873;BME280;19224;52.462;16.898;2023-02-13T04:47:19;102185.77;;;6.59;100.00
32873;BME280;19224;52.462;16.898;2023-02-13T04:49:49;102184.84;;;6.54;100.00
32873;BME280;19224;52.462;16.898;2023-02-13T04:52:20;102190.67;;;6.61;100.00
32873;BME280;19224;52.462;16.898;2023-02-13T04:54:50;102188.44;;;6.62;100.00
32873;BME280;19224;52.462;16.898;2023-02-13T04:57:21;102180.84;;;6.48;100.00
32873;BME280;19224;52.462;16.898;2023-02-13T04:59:51;102182.19;;;6.52;100.00
32873;BME280;19224;52.462;16.898;2023-02-13T05:02:21;102186.63;;;6.55;100.00
32873;BME280;19224;52.462;16.898;2023-02-13T05:04:52;102183.54;;;6.57;100.00
32873;BME280;19224;52.462;16.898;2023-02-13T05:07:22;102181.30;;;6.53;100.00
32873;BME280;19224;52.462;16.898;2023-02-13T05:09:53;102192.47;;;6.56;100.00
32873;BME280;19224;52.462;16.898;2023-02-13T05:12:23;102194.69;;;6.58;100.00
32873;BME280;19224;52.462;16.898;2023-02-13T05:14:53;102191.11;;;6.57;100.00
32873;BME280;19224;52.462;16.898;2023-02-13T05:17:24;102188.00;;;6.58;100.00
32873;BME280;19224;52.462;16.898;2023-02-13T05:19:54;102190.66;;;6.59;100.00
32873;BME280;19224;52.462;16.898;2023-02-13T05:22:24;102196.91;;;6.55;100.00
32873;BME280;19224;52.462;16.898;2023-02-13T05:25:13;102204.48;;;6.57;100.00
32873;BME280;19224;52.462;16.898;2023-02-13T05:27:43;102213.42;;;6.53;100.00
32873;BME280;19224;52.462;16.898;2023-02-13T05:30:14;102200.50;;;6.56;100.00
32873;BME280;19224;52.462;16.898;2023-02-13T05:32:45;102200.46;;;6.53;100.00
32873;BME280;19224;52.462;16.898;2023-02-13T05:35:15;102201.83;;;6.59;100.00
32873;BME280;19224;52.462;16.898;2023-02-13T05:37:46;102204.50;;;6.62;100.00
32873;BME280;19224;52.462;16.898;2023-02-13T05:40:17;102201.81;;;6.57;100.00
32873;BME280;19224;52.462;16.898;2023-02-13T05:42:48;102201.39;;;6.58;100.00
32873;BME280;19224;52.462;16.898;2023-02-13T05:45:18;102207.61;;;6.58;100.00
32873;BME280;19224;52.462;16.898;2023-02-13T05:47:48;102208.08;;;6.61;100.00
32873;BME280;19224;52.462;16.898;2023-02-13T05:50:19;102200.94;;;6.57;100.00
32873;BME280;19224;52.462;16.898;2023-02-13T05:52:49;102208.05;;;6.52;100.00
32873;BME280;19224;52.462;16.898;2023-02-13T05:55:20;102213.41;;;6.52;100.00
32873;BME280;19224;52.462;16.898;2023-02-13T05:57:57;102220.09;;;6.55;100.00
32873;BME280;19224;52.462;16.898;2023-02-13T06:00:27;102219.67;;;6.60;100.00
32873;BME280;19224;52.462;16.898;2023-02-13T06:02:58;102222.36;;;6.67;100.00
32873;BME280;19224;52.462;16.898;2023-02-13T06:05:28;102225.00;;;6.48;100.00
32873;BME280;19224;52.462;16.898;2023-02-13T06:07:59;102216.94;;;6.42;100.00
32873;BME280;19224;52.462;16.898;2023-02-13T06:10:29;102227.64;;;6.42;100.00
32873;BME280;19224;52.462;16.898;2023-02-13T06:12:59;102220.97;;;6.43;100.00
32873;BME280;19224;52.462;16.898;2023-02-13T06:15:30;102220.53;;;6.39;100.00
32873;BME280;19224;52.462;16.898;2023-02-13T06:18:00;102220.06;;;6.43;100.00
32873;BME280;19224;52.462;16.898;2023-02-13T06:20:31;102224.08;;;6.43;100.00
32873;BME280;19224;52.462;16.898;2023-02-13T06:23:02;102235.23;;;6.44;100.00
32873;BME280;19224;52.462;16.898;2023-02-13T06:25:34;102227.69;;;6.45;100.00
32873;BME280;19224;52.462;16.898;2023-02-13T06:28:06;102233.48;;;6.52;100.00
32873;BME280;19224;52.462;16.898;2023-02-13T06:30:36;102237.95;;;6.54;100.00
32873;BME280;19224;52.462;16.898;2023-02-13T06:33:06;102242.84;;;6.52;100.00
32873;BME280;19224;52.462;16.898;2023-02-13T06:35:37;102242.41;;;6.51;100.00
32873;BME280;19224;52.462;16.898;2023-02-13T06:38:07;102244.16;;;6.40;100.00
32873;BME280;19224;52.462;16.898;2023-02-13T06:40:37;102244.59;;;6.44;100.00
32873;BME280;19224;52.462;16.898;2023-02-13T06:43:08;102242.39;;;6.43;100.00
32873;BME280;19224;52.462;16.898;2023-02-13T06:45:38;102245.52;;;6.49;100.00
32873;BME280;19224;52.462;16.898;2023-02-13T06:48:09;102245.48;;;6.43;100.00
32873;BME280;19224;52.462;16.898;2023-02-13T06:50:40;102245.94;;;6.38;100.00
32873;BME280;19224;52.462;16.898;2023-02-13T06:53:10;102245.02;;;6.31;100.00
32873;BME280;19224;52.462;16.898;2023-02-13T06:55:40;102244.16;;;6.43;100.00
32873;BME280;19224;52.462;16.898;2023-02-13T06:58:11;102241.47;;;6.40;100.00
32873;BME280;19224;52.462;16.898;2023-02-13T07:00:41;102247.73;;;6.43;100.00
32873;BME280;19224;52.462;16.898;2023-02-13T07:03:12;102245.05;;;6.42;100.00
32873;BME280;19224;52.462;16.898;2023-02-13T07:05:43;102255.34;;;6.47;100.00
32873;BME280;19224;52.462;16.898;2023-02-13T07:08:14;102253.98;;;6.45;100.00
32873;BME280;19224;52.462;16.898;2023-02-13T07:10:44;102258.91;;;6.46;100.00
32873;BME280;19224;52.462;16.898;2023-02-13T07:13:14;102258.89;;;6.41;100.00
32873;BME280;19224;52.462;16.898;2023-02-13T07:15:45;102261.14;;;6.51;100.00
32873;BME280;19224;52.462;16.898;2023-02-13T07:18:15;102258.02;;;6.47;100.00
32873;BME280;19224;52.462;16.898;2023-02-13T07:20:45;102262.03;;;6.53;100.00
32873;BME280;19224;52.462;16.898;2023-02-13T07:23:16;102255.36;;;6.51;100.00
32873;BME280;19224;52.462;16.898;2023-02-13T07:25:46;102261.56;;;6.47;100.00
32873;BME280;19224;52.462;16.898;2023-02-13T07:28:16;102272.72;;;6.45;100.00
32873;BME280;19224;52.462;16.898;2023-02-13T07:30:47;102275.41;;;6.47;100.00
32873;BME280;19224;52.462;16.898;2023-02-13T07:33:17;102268.72;;;6.50;100.00
32873;BME280;19224;52.462;16.898;2023-02-13T07:35:49;102269.61;;;6.52;100.00
32873;BME280;19224;52.462;16.898;2023-02-13T07:38:20;102270.06;;;6.50;100.00
32873;BME280;19224;52.462;16.898;2023-02-13T07:40:51;102277.20;;;6.54;100.00
32873;BME280;19224;52.462;16.898;2023-02-13T07:43:21;102275.86;;;6.48;100.00
32873;BME280;19224;52.462;16.898;2023-02-13T07:45:53;102274.52;;;6.45;100.00
32873;BME280;19224;52.462;16.898;2023-02-13T07:48:24;102274.55;;;6.57;100.00
32873;BME280;19224;52.462;16.898;2023-02-13T07:51:04;102273.64;;;6.50;100.00
32873;BME280;19224;52.462;16.898;2023-02-13T07:53:35;102270.54;;;6.57;100.00
32873;BME280;19224;52.462;16.898;2023-02-13T07:56:07;102264.70;;;6.50;100.00
32873;BME280;19224;52.462;16.898;2023-02-13T07:58:38;102265.61;;;6.53;100.00
32873;BME280;19224;52.462;16.898;2023-02-13T08:01:15;102266.97;;;6.61;100.00
32873;BME280;19224;52.462;16.898;2023-02-13T08:03:51;102270.02;;;6.44;100.00
32873;BME280;19224;52.462;16.898;2023-02-13T08:06:21;102271.36;;;6.41;100.00
32873;BME280;19224;52.462;16.898;2023-02-13T08:08:53;102266.47;;;6.46;100.00
32873;BME280;19224;52.462;16.898;2023-02-13T08:11:30;102268.25;;;6.44;100.00
32873;BME280;19224;52.462;16.898;2023-02-13T08:14:04;102266.47;;;6.49;100.00
32873;BME280;19224;52.462;16.898;2023-02-13T08:16:34;102271.84;;;6.48;100.00
32873;BME280;19224;52.462;16.898;2023-02-13T08:19:04;102269.16;;;6.54;100.00
32873;BME280;19224;52.462;16.898;2023-02-13T08:21:35;102266.90;;;6.40;100.00
32873;BME280;19224;52.462;16.898;2023-02-13T08:24:06;102272.25;;;6.37;100.00
32873;BME280;19224;52.462;16.898;2023-02-13T08:26:37;102273.63;;;6.49;100.00
32873;BME280;19224;52.462;16.898;2023-02-13T08:29:08;102271.83;;;6.49;100.00
32873;BME280;19224;52.462;16.898;2023-02-13T08:31:39;102270.95;;;6.55;100.00
32873;BME280;19224;52.462;16.898;2023-02-13T08:34:09;102270.95;;;6.52;100.00
32873;BME280;19224;52.462;16.898;2023-02-13T08:36:40;102270.97;;;6.53;100.00
32873;BME280;19224;52.462;16.898;2023-02-13T08:39:10;102267.41;;;6.59;100.00
32873;BME280;19224;52.462;16.898;2023-02-13T08:41:40;102267.41;;;6.62;100.00
32873;BME280;19224;52.462;16.898;2023-02-13T08:44:11;102268.77;;;6.63;100.00
32873;BME280;19224;52.462;16.898;2023-02-13T08:46:42;102272.77;;;6.59;100.00
32873;BME280;19224;52.462;16.898;2023-02-13T08:49:12;102262.08;;;6.63;100.00
32873;BME280;19224;52.462;16.898;2023-02-13T08:51:43;102266.95;;;6.56;100.00
32873;BME280;19224;52.462;16.898;2023-02-13T08:54:13;102265.62;;;6.61;100.00
32873;BME280;19224;52.462;16.898;2023-02-13T08:56:44;102264.72;;;6.54;100.00
32873;BME280;19224;52.462;16.898;2023-02-13T08:59:14;102266.06;;;6.60;100.00
32873;BME280;19224;52.462;16.898;2023-02-13T09:01:45;102266.52;;;6.57;100.00
32873;BME280;19224;52.462;16.898;2023-02-13T09:04:15;102272.80;;;6.68;100.00
32873;BME280;19224;52.462;16.898;2023-02-13T09:06:47;102258.50;;;6.70;100.00
32873;BME280;19224;52.462;16.898;2023-02-13T09:09:18;102266.55;;;6.69;100.00
32873;BME280;19224;52.462;16.898;2023-02-13T09:11:48;102258.45;;;6.54;100.00
32873;BME280;19224;52.462;16.898;2023-02-13T09:14:19;102261.17;;;6.57;100.00
32873;BME280;19224;52.462;16.898;2023-02-13T09:16:50;102258.05;;;6.59;100.00
32873;BME280;19224;52.462;16.898;2023-02-13T09:19:20;102259.83;;;6.60;100.00
32873;BME280;19224;52.462;16.898;2023-02-13T09:21:50;102263.40;;;6.62;100.00
32873;BME280;19224;52.462;16.898;2023-02-13T09:24:21;102265.19;;;6.63;100.00
32873;BME280;19224;52.462;16.898;2023-02-13T09:26:51;102261.64;;;6.70;100.00
32873;BME280;19224;52.462;16.898;2023-02-13T09:29:22;102264.79;;;6.83;100.00
32873;BME280;19224;52.462;16.898;2023-02-13T09:31:52;102257.20;;;6.88;100.00
32873;BME280;19224;52.462;16.898;2023-02-13T09:34:23;102256.75;;;6.93;100.00
32873;BME280;19224;52.462;16.898;2023-02-13T09:36:54;102266.99;;;6.76;100.00
32873;BME280;19224;52.462;16.898;2023-02-13T09:39:24;102259.89;;;6.78;100.00
32873;BME280;19224;52.462;16.898;2023-02-13T09:41:55;102259.42;;;6.89;100.00
32873;BME280;19224;52.462;16.898;2023-02-13T09:44:39;102260.78;;;6.80;100.00
32873;BME280;19224;52.462;16.898;2023-02-13T09:47:42;102262.11;;;6.83;100.00
32873;BME280;19224;52.462;16.898;2023-02-13T09:50:32;102260.32;;;6.85;100.00
32873;BME280;19224;52.462;16.898;2023-02-13T09:52:59;102261.23;;;6.85;100.00
32873;BME280;19224;52.462;16.898;2023-02-13T09:58:47;102263.03;;;6.91;100.00
32873;BME280;19224;52.462;16.898;2023-02-13T10:01:35;102268.36;;;6.82;100.00
32873;BME280;19224;52.462;16.898;2023-02-13T10:04:31;102263.45;;;6.90;100.00
32873;BME280;19224;52.462;16.898;2023-02-13T10:07:19;102266.58;;;6.81;100.00
32873;BME280;19224;52.462;16.898;2023-02-13T10:15:42;102270.62;;;6.90;100.00
32873;BME280;19224;52.462;16.898;2023-02-13T10:18:23;102261.23;;;6.90;100.00
32873;BME280;19224;52.462;16.898;2023-02-13T10:20:57;102264.78;;;6.89;100.00
32873;BME280;19224;52.462;16.898;2023-02-13T10:23:59;102277.28;;;6.87;100.00
32873;BME280;19224;52.462;16.898;2023-02-13T10:26:33;102271.93;;;6.81;100.00
32873;BME280;19224;52.462;16.898;2023-02-13T10:29:05;102264.80;;;6.80;100.00
32873;BME280;19224;52.462;16.898;2023-02-13T10:31:55;102263.44;;;6.75;100.00
32873;BME280;19224;52.462;16.898;2023-02-13T10:34:30;102261.23;;;6.85;100.00
32873;BME280;19224;52.462;16.898;2023-02-13T10:37:01;102259.91;;;6.90;100.00
32873;BME280;19224;52.462;16.898;2023-02-13T10:39:32;102263.91;;;6.93;100.00
32873;BME280;19224;52.462;16.898;2023-02-13T10:45:50;102255.88;;;7.03;100.00
32873;BME280;19224;52.462;16.898;2023-02-13T10:48:52;102254.99;;;6.91;100.00
32873;BME280;19224;52.462;16.898;2023-02-13T10:51:32;102255.89;;;6.90;100.00
32873;BME280;19224;52.462;16.898;2023-02-13T11:02:47;102244.27;;;6.94;100.00
32873;BME280;19224;52.462;16.898;2023-02-13T11:05:25;102250.08;;;6.95;100.00
32873;BME280;19224;52.462;16.898;2023-02-13T11:07:56;102242.03;;;6.87;100.00
32873;BME280;19224;52.462;16.898;2023-02-13T11:10:29;102245.58;;;6.83;100.00
32873;BME280;19224;52.462;16.898;2023-02-13T11:13:14;102247.84;;;6.85;100.00
32873;BME280;19224;52.462;16.898;2023-02-13T11:15:35;102242.91;;;6.77;100.00
32873;BME280;19224;52.462;16.898;2023-02-13T11:18:22;102241.11;;;6.82;100.00
32873;BME280;19224;52.462;16.898;2023-02-13T11:21:13;102244.24;;;6.80;100.00
32873;BME280;19224;52.462;16.898;2023-02-13T11:23:50;102247.84;;;6.90;100.00
32873;BME280;19224;52.462;16.898;2023-02-13T11:26:32;102242.92;;;6.89;100.00
32873;BME280;19224;52.462;16.898;2023-02-13T11:29:21;102239.78;;;6.87;100.00
32873;BME280;19224;52.462;16.898;2023-02-13T11:32:19;102245.14;;;6.79;100.00
32873;BME280;19224;52.462;16.898;2023-02-13T11:34:50;102229.53;;;6.86;100.00
32873;BME280;19224;52.462;16.898;2023-02-13T11:39:57;102239.80;;;6.91;100.00
32873;BME280;19224;52.462;16.898;2023-02-13T11:42:37;102243.80;;;6.94;100.00
32873;BME280;19224;52.462;16.898;2023-02-13T11:45:24;102239.83;;;7.06;100.00
32873;BME280;19224;52.462;16.898;2023-02-13T11:47:56;102243.37;;;6.95;100.00
32873;BME280;19224;52.462;16.898;2023-02-13T11:50:51;102236.22;;;6.92;100.00
32873;BME280;19224;52.462;16.898;2023-02-13T11:53:30;102234.02;;;6.96;100.00
32873;BME280;19224;52.462;16.898;2023-02-13T11:58:40;102212.58;;;7.11;100.00
32873;BME280;19224;52.462;16.898;2023-02-13T12:01:24;102228.66;;;7.12;100.00
32873;BME280;19224;52.462;16.898;2023-02-13T12:04:15;102219.27;;;7.09;100.00
32873;BME280;19224;52.462;16.898;2023-02-13T12:07:09;102223.73;;;7.12;100.00
32873;BME280;19224;52.462;16.898;2023-02-13T12:09:37;102229.98;;;7.02;100.00
32873;BME280;19224;52.462;16.898;2023-02-13T12:12:24;102231.77;;;7.07;100.00
32873;BME280;19224;52.462;16.898;2023-02-13T12:14:45;102236.26;;;7.11;100.00
32873;BME280;19224;52.462;16.898;2023-02-13T12:17:25;102224.64;;;7.03;100.00
32873;BME280;19224;52.462;16.898;2023-02-13T12:19:56;102224.17;;;7.04;100.00
32873;BME280;19224;52.462;16.898;2023-02-13T12:22:46;102223.72;;;7.10;100.00
32873;BME280;19224;52.462;16.898;2023-02-13T12:31:44;102230.00;;;7.01;100.00
32873;BME280;19224;52.462;16.898;2023-02-13T12:37:38;102212.57;;;7.06;100.00
32873;BME280;19224;52.462;16.898;2023-02-13T12:40:38;102213.02;;;7.00;100.00
32873;BME280;19224;52.462;16.898;2023-02-13T12:55:57;102198.72;;;7.08;100.00
32873;BME280;19224;52.462;16.898;2023-02-13T12:58:42;102193.36;;;7.17;100.00
32873;BME280;19224;52.462;16.898;2023-02-13T13:01:19;102197.83;;;7.09;100.00
32873;BME280;19224;52.462;16.898;2023-02-13T13:04:05;102180.87;;;7.07;100.00
32873;BME280;19224;52.462;16.898;2023-02-13T13:12:29;102182.67;;;7.11;100.00
32873;BME280;19224;52.462;16.898;2023-02-13T13:20:58;102172.39;;;7.12;100.00
32873;BME280;19224;52.462;16.898;2023-02-13T13:28:48;102157.66;;;7.12;100.00
32873;BME280;19224;52.462;16.898;2023-02-13T13:31:20;102157.20;;;7.13;100.00
32873;BME280;19224;52.462;16.898;2023-02-13T13:33:57;102142.03;;;7.09;100.00
32873;BME280;19224;52.462;16.898;2023-02-13T13:36:47;102140.66;;;7.10;100.00
32873;BME280;19224;52.462;16.898;2023-02-13T13:39:49;102128.19;;;7.12;100.00
32873;BME280;19224;52.462;16.898;2023-02-13T13:42:39;102109.84;;;7.19;100.00
32873;BME280;19224;52.462;16.898;2023-02-13T13:51:28;102127.28;;;7.22;100.00
32873;BME280;19224;52.462;16.898;2023-02-13T14:05:25;102141.58;;;7.06;100.00
32873;BME280;19224;52.462;16.898;2023-02-13T14:08:03;102142.00;;;7.15;100.00
32873;BME280;19224;52.462;16.898;2023-02-13T14:13:29;102148.27;;;7.02;100.00
32873;BME280;19224;52.462;16.898;2023-02-13T14:16:03;102151.38;;;7.10;100.00
32873;BME280;19224;52.462;16.898;2023-02-13T14:18:41;102133.06;;;7.20;100.00
32873;BME280;19224;52.462;16.898;2023-02-13T14:21:10;102135.31;;;7.16;100.00
32873;BME280;19224;52.462;16.898;2023-02-13T14:26:37;102142.47;;;7.14;100.00
32873;BME280;19224;52.462;16.898;2023-02-13T14:29:31;102135.30;;;7.15;100.00
32873;BME280;19224;52.462;16.898;2023-02-13T14:32:15;102131.30;;;7.12;100.00
32873;BME280;19224;52.462;16.898;2023-02-13T14:35:17;102151.41;;;7.04;100.00
32873;BME280;19224;52.462;16.898;2023-02-13T14:37:51;102121.06;;;7.03;100.00
32873;BME280;19224;52.462;16.898;2023-02-13T14:40:50;102122.37;;;7.08;100.00
32873;BME280;19224;52.462;16.898;2023-02-13T14:46:30;102128.20;;;6.92;100.00
32873;BME280;19224;52.462;16.898;2023-02-13T14:49:11;102120.15;;;6.93;100.00
32873;BME280;19224;52.462;16.898;2023-02-13T14:51:48;102110.34;;;7.03;100.00
32873;BME280;19224;52.462;16.898;2023-02-13T14:54:30;102117.92;;;7.00;100.00
32873;BME280;19224;52.462;16.898;2023-02-13T14:59:56;102125.52;;;6.90;100.00
32873;BME280;19224;52.462;16.898;2023-02-13T15:02:29;102123.73;;;6.88;100.00
32873;BME280;19224;52.462;16.898;2023-02-13T15:05:11;102122.39;;;6.92;100.00
32873;BME280;19224;52.462;16.898;2023-02-13T15:08:10;102120.16;;;6.99;100.00
32873;BME280;19224;52.462;16.898;2023-02-13T15:10:44;102119.71;;;6.88;100.00
32873;BME280;19224;52.462;16.898;2023-02-13T15:16:14;102133.56;;;6.92;100.00
32873;BME280;19224;52.462;16.898;2023-02-13T15:18:49;102137.14;;;6.82;100.00
32873;BME280;19224;52.462;16.898;2023-02-13T15:21:23;102142.50;;;6.82;100.00
32873;BME280;19224;52.462;16.898;2023-02-13T15:23:58;102151.41;;;6.82;100.00
32873;BME280;19224;52.462;16.898;2023-02-13T15:26:29;102136.23;;;6.81;100.00
32873;BME280;19224;52.462;16.898;2023-02-13T15:29:18;102139.38;;;6.78;100.00
32873;BME280;19224;52.462;16.898;2023-02-13T15:31:49;102129.98;;;6.84;100.00
32873;BME280;19224;52.462;16.898;2023-02-13T15:34:31;102129.12;;;6.79;100.00
32873;BME280;19224;52.462;16.898;2023-02-13T15:37:04;102130.45;;;6.86;100.00
32873;BME280;19224;52.462;16.898;2023-02-13T15:39:35;102124.63;;;6.79;100.00
32873;BME280;19224;52.462;16.898;2023-02-13T15:42:05;102127.77;;;6.74;100.00
32873;BME280;19224;52.462;16.898;2023-02-13T15:44:37;102128.22;;;6.75;100.00
32873;BME280;19224;52.462;16.898;2023-02-13T15:47:17;102122.84;;;6.69;100.00
32873;BME280;19224;52.462;16.898;2023-02-13T15:49:48;102117.94;;;6.70;100.00